Time;durP1;ratioP1;P1;durP2;ratioP2;P2;SDS_P1;SDS_P2;PMS_P1;PMS_P2;Temp;Humidity;BMP_temperature;BMP_pressure;BME280_temperature;BME280_humidity;BME280_pressure;Samples;Min_cycle;Max_cycle;Signal;HPM_P1;HPM_P2
2021/03/29 00:01:26;;;;;;;5.13;2.20;;;;;;;9.22;100.00;97472.28;5091870;28;20279;-82
2021/03/29 00:03:54;;;;;;;6.07;2.13;;;;;;;9.27;100.00;97485.88;5091184;28;20206;-83
2021/03/29 00:06:22;;;;;;;3.77;2.07;;;;;;;9.19;100.00;97484.81;5091705;28;20204;-83
2021/03/29 00:08:50;;;;;;;2.93;2.40;;;;;;;9.31;100.00;97475.97;5091810;28;20228;-83
2021/03/29 00:11:18;;;;;;;3.60;2.60;;;;;;;9.24;100.00;97490.53;5091351;28;20318;-83
2021/03/29 00:13:47;;;;;;;3.23;2.10;;;;;;;9.31;100.00;97483.00;5091307;28;20242;-83
2021/03/29 00:16:15;;;;;;;1.93;1.73;;;;;;;9.28;100.00;97487.56;5091536;28;20200;-83
2021/03/29 00:18:42;;;;;;;3.43;2.33;;;;;;;9.39;100.00;97488.50;5091410;28;20293;-83
2021/03/29 00:21:10;;;;;;;2.30;2.10;;;;;;;9.21;100.00;97494.25;5091335;28;20307;-83
2021/03/29 00:23:37;;;;;;;3.27;2.03;;;;;;;9.11;100.00;97490.66;5091012;28;20238;-83
2021/03/29 00:26:05;;;;;;;4.97;2.30;;;;;;;9.22;100.00;97495.91;5093725;28;20242;-83
2021/03/29 00:28:32;;;;;;;3.20;1.93;;;;;;;9.22;100.00;97495.06;5094895;28;20199;-83
2021/03/29 00:30:59;;;;;;;3.17;2.20;;;;;;;9.13;100.00;97503.63;5095325;28;20700;-83
2021/03/29 00:33:29;;;;;;;2.73;2.43;;;;;;;9.18;100.00;97510.22;5094756;28;20354;-83
2021/03/29 00:35:58;;;;;;;3.10;2.30;;;;;;;9.12;100.00;97508.06;5095151;28;20196;-83
2021/03/29 00:38:25;;;;;;;2.40;2.20;;;;;;;9.21;100.00;97515.22;5095124;28;20212;-83
2021/03/29 00:40:54;;;;;;;4.77;2.30;;;;;;;9.21;100.00;97517.84;5093978;28;20200;-83
2021/03/29 00:43:24;;;;;;;3.57;2.07;;;;;;;8.94;100.00;97515.56;5093250;28;20203;-82
2021/03/29 00:45:53;;;;;;;2.60;2.40;;;;;;;9.15;100.00;97507.81;5094403;28;20299;-83
2021/03/29 00:48:22;;;;;;;2.50;1.93;;;;;;;9.06;100.00;97516.41;5094386;28;20672;-83
2021/03/29 00:50:52;;;;;;;3.80;2.40;;;;;;;9.11;100.00;97522.13;5094835;28;20739;-83
2021/03/29 00:53:19;;;;;;;2.57;1.80;;;;;;;9.12;100.00;97515.94;5094369;28;20283;-83
2021/03/29 00:55:48;;;;;;;3.47;2.90;;;;;;;8.95;100.00;97522.47;5094896;28;20200;-82
2021/03/29 00:58:16;;;;;;;3.87;2.10;;;;;;;9.08;100.00;97529.41;5094128;28;20188;-82
2021/03/29 01:00:45;;;;;;;3.50;2.07;;;;;;;8.97;100.00;97523.19;5094549;28;20203;-82
2021/03/29 01:03:15;;;;;;;3.07;2.23;;;;;;;9.03;100.00;97534.97;5094629;28;20269;-83
2021/03/29 01:05:44;;;;;;;4.53;2.53;;;;;;;9.04;100.00;97521.78;5094706;28;20204;-82
2021/03/29 01:08:13;;;;;;;5.20;2.80;;;;;;;9.08;100.00;97532.03;5094237;28;20199;-83
2021/03/29 01:10:40;;;;;;;2.80;1.90;;;;;;;9.00;100.00;97541.28;5094758;28;20189;-82
2021/03/29 01:13:12;;;;;;;3.67;2.17;;;;;;;9.01;100.00;97539.53;5094175;28;20196;-83
2021/03/29 01:15:41;;;;;;;2.63;2.00;;;;;;;9.10;100.00;97538.81;5093996;28;20230;-82
2021/03/29 01:18:12;;;;;;;2.70;2.13;;;;;;;8.90;100.00;97540.34;5094011;28;20203;-83
2021/03/29 01:20:57;;;;;;;4.60;2.07;;;;;;;8.79;100.00;97538.53;5094157;28;20231;-82
2021/03/29 01:23:25;;;;;;;1.80;1.70;;;;;;;8.73;100.00;97544.25;5094044;28;20668;-82
2021/03/29 01:25:58;;;;;;;3.83;2.43;;;;;;;8.93;100.00;97547.13;5093743;28;20254;-82
2021/03/29 01:28:27;;;;;;;2.87;2.00;;;;;;;9.00;100.00;97541.28;5093957;28;20181;-83
2021/03/29 01:30:55;;;;;;;4.63;2.27;;;;;;;8.85;100.00;97552.13;5093896;28;20673;-82
2021/03/29 01:33:24;;;;;;;3.67;1.93;;;;;;;8.71;100.00;97546.13;5093758;28;20265;-82
2021/03/29 01:35:53;;;;;;;3.30;2.13;;;;;;;8.87;100.00;97555.44;5093333;28;20576;-83
2021/03/29 01:38:21;;;;;;;2.67;2.30;;;;;;;8.70;100.00;97552.34;5093692;28;20231;-82
2021/03/29 01:40:49;;;;;;;4.50;2.53;;;;;;;8.65;100.00;97545.75;5093582;28;20249;-82
2021/03/29 01:43:17;;;;;;;3.03;2.00;;;;;;;8.72;100.00;97558.28;5093505;28;20196;-83
2021/03/29 01:45:45;;;;;;;1.97;1.77;;;;;;;8.64;100.00;97557.22;5093536;28;20231;-82
2021/03/29 01:48:13;;;;;;;3.40;2.17;;;;;;;8.70;100.00;97554.97;5093802;28;20200;-83
2021/03/29 01:50:42;;;;;;;3.53;2.07;;;;;;;8.64;100.00;97550.19;5093244;28;20287;-83
2021/03/29 01:53:11;;;;;;;4.03;2.20;;;;;;;8.60;100.00;97561.00;5093277;28;20283;-83
2021/03/29 01:55:40;;;;;;;1.97;1.80;;;;;;;8.72;100.00;97562.69;5093429;28;20320;-83
2021/03/29 01:58:10;;;;;;;2.40;2.00;;;;;;;8.69;100.00;97569.00;5093079;28;20192;-83
2021/03/29 02:00:48;;;;;;;3.43;1.90;;;;;;;8.58;100.00;97559.31;5093470;28;20184;-83
2021/03/29 02:03:15;;;;;;;3.73;2.00;;;;;;;8.74;100.00;97577.38;5093297;28;20274;-83
2021/03/29 02:05:43;;;;;;;2.23;1.53;;;;;;;8.75;100.00;97578.19;5093162;28;20577;-83
2021/03/29 02:08:11;;;;;;;4.13;1.87;;;;;;;8.68;100.00;97588.31;5093112;28;20568;-82
2021/03/29 02:10:40;;;;;;;1.90;1.80;;;;;;;8.55;100.00;97580.50;5092966;28;20688;-82
2021/03/29 02:13:08;;;;;;;3.03;2.40;;;;;;;8.58;100.00;97587.31;5093343;28;20251;-83
2021/03/29 02:15:34;;;;;;;2.50;1.77;;;;;;;8.55;100.00;97582.28;5093312;28;20220;-83
2021/03/29 02:18:05;;;;;;;1.80;1.70;;;;;;;8.52;100.00;97591.25;5092811;28;20254;-83
2021/03/29 02:20:35;;;;;;;2.67;1.80;;;;;;;8.34;100.00;97596.00;5092700;28;20181;-83
2021/03/29 02:23:03;;;;;;;1.87;1.60;;;;;;;8.36;100.00;97597.69;5092689;28;20266;-82
2021/03/29 02:25:32;;;;;;;2.10;1.90;;;;;;;8.17;100.00;97596.38;5092760;28;20192;-83
2021/03/29 02:28:00;;;;;;;2.13;1.70;;;;;;;8.45;100.00;97595.28;5092382;28;20200;-82
2021/03/29 02:30:32;;;;;;;2.80;2.27;;;;;;;8.50;100.00;97605.41;5093168;28;20573;-82
2021/03/29 02:33:00;;;;;;;2.20;1.80;;;;;;;8.56;100.00;97597.94;5092673;28;20276;-82
2021/03/29 02:35:27;;;;;;;1.90;1.80;;;;;;;8.69;100.00;97603.06;5093063;28;20296;-82
2021/03/29 02:37:57;;;;;;;3.00;2.20;;;;;;;8.76;100.00;97609.56;5092391;28;20192;-82
2021/03/29 02:40:26;;;;;;;2.33;1.90;;;;;;;8.68;100.00;97614.50;5092503;28;20673;-83
2021/03/29 02:42:55;;;;;;;2.10;1.90;;;;;;;8.71;100.00;97606.44;5092149;28;20200;-82
2021/03/29 02:45:25;;;;;;;7.13;3.07;;;;;;;8.86;100.00;97609.69;5092923;28;20193;-82
2021/03/29 02:47:55;;;;;;;3.37;2.57;;;;;;;8.55;100.00;97624.22;5091610;28;20676;-82
2021/03/29 02:50:25;;;;;;;3.33;2.00;;;;;;;8.42;100.00;97621.69;5092387;28;20176;-82
2021/03/29 02:52:56;;;;;;;8.43;4.67;;;;;;;8.51;100.00;97622.78;5092400;28;20199;-82
2021/03/29 02:55:27;;;;;;;5.57;4.50;;;;;;;8.55;100.00;97622.44;5092377;28;20211;-82
2021/03/29 02:57:54;;;;;;;5.57;5.07;;;;;;;8.58;100.00;97629.25;5091963;28;20204;-82
2021/03/29 03:00:23;;;;;;;4.50;2.43;;;;;;;8.21;100.00;97623.19;5092543;28;20204;-83
2021/03/29 03:02:51;;;;;;;3.30;2.23;;;;;;;8.20;100.00;97624.16;5091909;28;20664;-83
2021/03/29 03:05:20;;;;;;;2.97;1.80;;;;;;;8.17;100.00;97630.44;5091937;28;20223;-82
2021/03/29 03:07:48;;;;;;;2.40;2.20;;;;;;;8.26;100.00;97632.41;5091937;28;20668;-83
2021/03/29 03:10:15;;;;;;;1.90;1.80;;;;;;;8.17;100.00;97627.81;5092099;28;20196;-82
2021/03/29 03:12:43;;;;;;;2.43;1.90;;;;;;;8.29;100.00;97624.31;5091818;28;20232;-83
2021/03/29 03:15:14;;;;;;;3.30;2.00;;;;;;;8.21;100.00;97626.66;5092331;28;20262;-82
2021/03/29 03:17:40;;;;;;;2.97;2.43;;;;;;;8.24;100.00;97621.22;5091934;28;20275;-82
2021/03/29 03:20:09;;;;;;;4.07;2.40;;;;;;;7.94;100.00;97626.03;5091944;28;20680;-82
2021/03/29 03:22:37;;;;;;;3.30;2.47;;;;;;;8.00;100.00;97623.81;5091752;28;20243;-82
2021/03/29 03:25:23;;;;;;;4.80;2.53;;;;;;;8.04;100.00;97620.03;5092211;28;20660;-82
2021/03/29 03:27:50;;;;;;;3.40;3.10;;;;;;;7.75;100.00;97619.44;5091751;28;20190;-82
2021/03/29 03:30:19;;;;;;;4.00;3.00;;;;;;;7.64;100.00;97611.53;5091954;28;20582;-82
2021/03/29 03:32:46;;;;;;;3.67;3.03;;;;;;;7.66;100.00;97609.66;5091935;28;20196;-82
2021/03/29 03:35:16;;;;;;;3.40;2.10;;;;;;;7.73;100.00;97605.66;5091830;28;20242;-83
2021/03/29 03:37:49;;;;;;;5.40;4.47;;;;;;;7.91;100.00;97618.38;5091584;28;20203;-82
2021/03/29 03:40:18;;;;;;;3.07;2.27;;;;;;;7.93;100.00;97613.84;5091732;28;20656;-82
2021/03/29 03:42:48;;;;;;;2.20;2.00;;;;;;;7.93;100.00;97616.47;5091574;28;20634;-82
2021/03/29 03:45:16;;;;;;;3.27;2.30;;;;;;;7.71;100.00;97614.53;5091778;28;20188;-82
2021/03/29 03:47:44;;;;;;;3.33;2.33;;;;;;;7.29;100.00;97627.88;5091547;28;20291;-82
2021/03/29 03:50:14;;;;;;;4.63;2.33;;;;;;;7.64;100.00;97608.91;5091486;28;20196;-82
2021/03/29 03:52:42;;;;;;;4.10;2.73;;;;;;;7.91;100.00;97608.75;5091471;28;20647;-82
2021/03/29 03:55:10;;;;;;;6.23;2.60;;;;;;;7.80;100.00;97612.13;5091602;28;20577;-82
2021/03/29 03:57:37;;;;;;;5.00;2.73;;;;;;;7.47;100.00;97614.47;5091517;28;20230;-82
2021/03/29 04:00:11;;;;;;;4.10;3.17;;;;;;;7.49;100.00;97604.75;5093985;28;20336;-82
2021/03/29 04:02:37;;;;;;;4.10;2.60;;;;;;;7.22;100.00;97605.72;5095660;28;20278;-82
2021/03/29 04:05:06;;;;;;;6.00;3.10;;;;;;;7.09;100.00;97605.69;5095553;28;20279;-82
2021/03/29 04:07:32;;;;;;;6.07;3.70;;;;;;;7.04;100.00;97606.97;5095300;28;20231;-83
2021/03/29 04:10:04;;;;;;;6.07;3.70;;;;;;;7.28;100.00;97615.75;5096018;28;20275;-85
2021/03/29 04:12:31;;;;;;;4.80;3.30;;;;;;;7.29;100.00;97622.66;5096757;28;20571;-89
2021/03/29 04:14:57;;;;;;;3.47;2.30;;;;;;;7.42;100.00;97621.81;5096371;28;20224;-89
2021/03/29 04:17:25;;;;;;;2.60;2.40;;;;;;;7.40;100.00;97621.91;5096215;28;20275;-87
2021/03/29 04:19:52;;;;;;;3.93;2.17;;;;;;;7.45;100.00;97626.81;5096054;28;20630;-85
2021/03/29 04:22:18;;;;;;;2.70;2.40;;;;;;;7.36;100.00;97634.38;5095391;28;20240;-86
2021/03/29 04:24:45;;;;;;;5.83;2.93;;;;;;;7.39;100.00;97628.09;5095816;28;20193;-87
2021/03/29 04:27:12;;;;;;;6.43;3.10;;;;;;;7.25;100.00;97626.41;5095795;28;20201;-87
2021/03/29 04:29:39;;;;;;;4.80;3.37;;;;;;;7.05;100.00;97625.16;5095899;28;20337;-88
2021/03/29 04:32:08;;;;;;;2.80;2.20;;;;;;;6.90;100.00;97616.56;5096322;28;20275;-89
2021/03/29 04:34:36;;;;;;;3.33;3.00;;;;;;;6.95;100.00;97612.81;5095988;28;20220;-86
2021/03/29 04:37:03;;;;;;;7.07;2.97;;;;;;;7.27;100.00;97629.75;5095596;28;20192;-87
2021/03/29 04:39:30;;;;;;;5.30;2.67;;;;;;;7.08;100.00;97630.19;5095536;28;20200;-89
2021/03/29 04:41:57;;;;;;;6.57;5.20;;;;;;;6.80;100.00;97628.56;5095905;28;20634;-89
2021/03/29 04:44:24;;;;;;;8.67;5.63;;;;;;;6.66;100.00;97628.66;5095811;28;20192;-87
2021/03/29 04:46:50;;;;;;;5.77;5.13;;;;;;;6.76;100.00;97636.72;5095392;28;20238;-86
2021/03/29 04:49:17;;;;;;;23.20;20.73;;;;;;;6.83;100.00;97641.44;5095112;28;20287;-86
2021/03/29 04:51:45;;;;;;;10.77;9.80;;;;;;;6.75;100.00;97632.41;5094974;28;20713;-88
2021/03/29 04:54:12;;;;;;;6.93;5.30;;;;;;;7.00;100.00;97642.94;5094875;28;20270;-87
2021/03/29 04:56:38;;;;;;;4.60;4.10;;;;;;;6.98;100.00;97631.72;5095077;28;20239;-90
2021/03/29 04:59:06;;;;;;;7.73;4.60;;;;;;;6.84;100.00;97642.28;5095562;28;20668;-89
2021/03/29 05:01:33;;;;;;;7.97;7.27;;;;;;;7.08;100.00;97647.66;5095262;28;20287;-88
2021/03/29 05:03:59;;;;;;;6.00;5.33;;;;;;;7.21;100.00;97638.03;5094851;28;20204;-86
2021/03/29 05:06:30;;;;;;;6.10;5.33;;;;;;;7.33;100.00;97636.34;5094754;28;20196;-85
2021/03/29 05:08:57;;;;;;;6.70;6.07;;;;;;;7.24;100.00;97635.22;5095648;28;20557;-87
2021/03/29 05:11:24;;;;;;;11.40;10.17;;;;;;;7.37;100.00;97649.09;5094676;28;20257;-89
2021/03/29 05:13:54;;;;;;;8.53;6.37;;;;;;;7.51;100.00;97647.31;5094177;28;20192;-90
2021/03/29 05:16:27;;;;;;;5.43;3.97;;;;;;;7.73;100.00;97655.38;5097973;28;20192;-96
2021/03/29 05:18:54;;;;;;;6.20;4.90;;;;;;;7.88;100.00;97678.81;5100786;28;20688;-95
2021/03/29 05:21:21;;;;;;;3.97;3.43;;;;;;;7.85;100.00;97677.22;5095877;28;20235;-89
2021/03/29 05:23:48;;;;;;;3.33;2.87;;;;;;;8.03;100.00;97670.69;5095386;28;20772;-89
2021/03/29 05:26:16;;;;;;;6.07;3.70;;;;;;;7.94;100.00;97670.53;5095225;28;20200;-90
2021/03/29 05:28:42;;;;;;;3.67;3.23;;;;;;;8.07;100.00;97671.31;5094658;28;20188;-87
2021/03/29 05:31:09;;;;;;;3.80;3.10;;;;;;;7.85;100.00;97679.84;5094317;28;20208;-87
2021/03/29 05:33:36;;;;;;;4.00;3.00;;;;;;;7.93;100.00;97672.31;5093669;28;20200;-88
2021/03/29 05:36:03;;;;;;;7.20;5.10;;;;;;;7.82;100.00;97666.97;5094767;28;20217;-91
2021/03/29 05:38:29;;;;;;;20.60;13.07;;;;;;;7.99;100.00;97650.09;5094857;28;20203;-90
2021/03/29 05:40:56;;;;;;;24.50;11.37;;;;;;;7.81;100.00;97679.22;5094811;28;20250;-91
2021/03/29 05:43:24;;;;;;;41.87;22.47;;;;;;;8.12;100.00;97678.88;5094657;28;20192;-88
2021/03/29 05:45:52;;;;;;;13.47;9.93;;;;;;;8.17;100.00;97682.81;5093854;28;20192;-89
2021/03/29 05:48:19;;;;;;;9.60;7.53;;;;;;;8.27;100.00;97683.00;5094427;28;20204;-89
2021/03/29 05:50:46;;;;;;;12.50;9.73;;;;;;;8.25;100.00;97680.50;5094372;28;20668;-91
2021/03/29 05:53:13;;;;;;;7.67;6.60;;;;;;;8.40;100.00;97683.00;5094145;28;20185;-93
2021/03/29 05:55:42;;;;;;;11.87;4.70;;;;;;;8.40;100.00;97698.72;5094933;28;20243;-89
2021/03/29 06:00:52;;;;;;;10.00;3.20;;;;;;;8.47;100.00;97711.25;5090697;28;20196;-85
2021/03/29 06:03:26;;;;;;;8.37;4.33;;;;;;;8.67;100.00;97709.00;5092654;28;20200;-83
2021/03/29 06:05:55;;;;;;;5.33;3.10;;;;;;;8.70;100.00;97717.47;5092416;28;20641;-85
2021/03/29 06:08:22;;;;;;;3.47;3.10;;;;;;;8.86;100.00;97718.97;5092532;28;20341;-85
2021/03/29 06:10:53;;;;;;;5.57;4.90;;;;;;;8.71;100.00;97719.13;5092800;28;20257;-84
2021/03/29 06:13:23;;;;;;;6.40;5.47;;;;;;;8.89;100.00;97706.47;5093606;28;20191;-90
2021/03/29 06:16:08;;;;;;;7.13;3.10;;;;;;;9.12;100.00;97711.81;5094172;28;20277;-90
2021/03/29 06:18:39;;;;;;;6.87;4.10;;;;;;;9.12;100.00;97715.25;5099577;28;20264;-90
2021/03/29 06:21:09;;;;;;;5.70;3.40;;;;;;;9.28;100.00;97722.81;5101801;28;20257;-90
2021/03/29 06:23:38;;;;;;;3.33;2.37;;;;;;;9.55;100.00;97722.53;5093646;28;20204;-91
2021/03/29 06:26:22;;;;;;;4.47;3.07;;;;;;;9.43;100.00;97728.72;5093809;28;20196;-91
2021/03/29 06:28:50;;;;;;;4.37;2.63;;;;;;;9.74;100.00;97721.97;5093911;28;20294;-90
2021/03/29 06:31:27;;;;;;;3.20;1.90;;;;;;;9.76;100.00;97718.25;5093858;28;20192;-90
2021/03/29 06:33:55;;;;;;;4.40;2.80;;;;;;;9.86;100.00;97721.00;5093686;28;20198;-90
2021/03/29 06:36:30;;;;;;;7.70;2.63;;;;;;;9.87;100.00;97721.84;5094229;28;20192;-90
2021/03/29 06:39:10;;;;;;;5.77;3.50;;;;;;;9.84;100.00;97724.72;5093829;28;20338;-91
2021/03/29 06:41:37;;;;;;;6.57;3.87;;;;;;;9.87;100.00;97719.22;5093903;28;20187;-91
2021/03/29 06:44:05;;;;;;;4.93;3.17;;;;;;;9.92;100.00;97722.34;5093797;28;20292;-91
2021/03/29 06:46:33;;;;;;;4.63;2.80;;;;;;;9.96;100.00;97726.41;5093457;28;20870;-87
2021/03/29 06:49:01;;;;;;;4.63;3.07;;;;;;;10.19;100.00;97724.59;5093410;28;20239;-90
2021/03/29 06:51:32;;;;;;;6.13;2.90;;;;;;;10.17;100.00;97735.22;5093389;28;20819;-91
2021/03/29 06:54:02;;;;;;;3.97;2.27;;;;;;;10.40;100.00;97743.13;5093388;28;20317;-91
2021/03/29 06:56:33;;;;;;;4.97;3.90;;;;;;;10.32;100.00;97732.38;5093752;28;20280;-90
2021/03/29 06:59:14;;;;;;;5.83;3.03;;;;;;;10.56;100.00;97737.47;5087040;28;20189;-93
2021/03/29 07:01:52;;;;;;;5.30;3.93;;;;;;;10.41;100.00;97737.75;5093049;28;20197;-89
2021/03/29 07:04:20;;;;;;;3.67;3.27;;;;;;;10.21;100.00;97735.81;5093012;28;20180;-89
2021/03/29 07:06:48;;;;;;;6.63;2.93;;;;;;;10.06;100.00;97735.22;5093409;28;20279;-91
2021/03/29 07:09:16;;;;;;;5.73;2.50;;;;;;;10.01;100.00;97742.66;5093093;28;20189;-90
2021/03/29 07:11:45;;;;;;;5.03;3.77;;;;;;;10.29;100.00;97736.09;5093024;28;20200;-88
2021/03/29 07:14:12;;;;;;;2.70;2.50;;;;;;;10.50;100.00;97741.44;5093312;28;20228;-88
2021/03/29 07:16:41;;;;;;;8.43;4.53;;;;;;;10.74;100.00;97738.66;5092902;28;20642;-86
2021/03/29 07:19:10;;;;;;;4.90;2.60;;;;;;;10.89;100.00;97741.84;5092686;28;20200;-91
2021/03/29 07:21:38;;;;;;;5.60;2.80;;;;;;;11.33;100.00;97740.00;5092836;28;20720;-86
2021/03/29 07:24:07;;;;;;;3.20;2.60;;;;;;;11.56;100.00;97745.94;5093122;28;20199;-89
2021/03/29 07:26:38;;;;;;;5.73;2.40;;;;;;;11.67;100.00;97740.63;5092549;28;20200;-86
2021/03/29 07:29:19;;;;;;;2.93;2.40;;;;;;;11.63;100.00;97747.09;5092271;28;20203;-86
2021/03/29 07:31:49;;;;;;;3.87;2.70;;;;;;;11.52;100.00;97749.81;5091475;28;20192;-83
2021/03/29 07:34:17;;;;;;;2.43;2.23;;;;;;;11.42;100.00;97747.09;5091827;28;20212;-87
2021/03/29 07:36:46;;;;;;;4.90;3.20;;;;;;;11.57;100.00;97744.97;5092338;28;20192;-87
2021/03/29 07:39:19;;;;;;;2.80;2.33;;;;;;;11.61;100.00;97747.25;5092703;28;20235;-86
2021/03/29 07:41:46;;;;;;;2.73;2.40;;;;;;;11.55;100.00;97747.75;5091899;28;20272;-87
2021/03/29 07:44:16;;;;;;;3.30;2.50;;;;;;;11.85;100.00;97743.53;5091892;28;20196;-86
2021/03/29 07:46:47;;;;;;;3.57;2.57;;;;;;;12.15;100.00;97740.06;5091676;28;20196;-86
2021/03/29 07:49:43;;;;;;;2.70;1.93;;;;;;;12.22;100.00;97746.47;5092303;28;20267;-88
2021/03/29 07:52:27;;;;;;;3.90;2.93;;;;;;;12.21;100.00;97743.97;5091472;28;20210;-88
2021/03/29 07:54:55;;;;;;;3.07;2.23;;;;;;;12.31;100.00;97737.78;5092449;28;20215;-88
2021/03/29 07:57:59;;;;;;;2.80;2.13;;;;;;;12.11;100.00;97744.78;5093149;28;20231;-86
2021/03/29 08:00:42;;;;;;;4.60;2.10;;;;;;;12.37;100.00;97737.25;5092540;28;20196;-87
2021/03/29 08:03:48;;;;;;;3.63;3.03;;;;;;;12.68;100.00;97738.97;5092443;28;20181;-90
2021/03/29 08:06:44;;;;;;;2.40;1.77;;;;;;;13.03;100.00;97738.50;5092939;28;20192;-89
2021/03/29 08:09:17;;;;;;;3.03;2.73;;;;;;;13.04;100.00;97738.34;5092737;28;20186;-88
2021/03/29 08:12:01;;;;;;;2.53;1.80;;;;;;;12.99;100.00;97737.94;5092666;28;20262;-87
2021/03/29 08:14:33;;;;;;;3.30;2.30;;;;;;;13.80;100.00;97732.34;5092205;28;20260;-90
2021/03/29 08:17:38;;;;;;;5.47;3.93;;;;;;;14.04;100.00;97735.31;5092440;28;20190;-89
2021/03/29 08:20:11;;;;;;;8.27;5.67;;;;;;;14.56;100.00;97726.09;5092310;28;20186;-87
2021/03/29 08:22:42;;;;;;;3.30;2.87;;;;;;;14.52;100.00;97730.00;5090682;28;20224;-95
2021/03/29 08:25:27;;;;;;;3.33;2.60;;;;;;;14.44;100.00;97733.34;5070209;28;20205;-88
2021/03/29 08:27:58;;;;;;;3.93;2.20;;;;;;;14.06;100.00;97734.34;5071802;28;20199;-91
2021/03/29 08:30:27;;;;;;;3.00;2.20;;;;;;;13.78;100.00;97736.91;5070425;28;20200;-89
2021/03/29 08:33:17;;;;;;;3.47;2.70;;;;;;;13.93;100.00;97735.50;5072617;28;20282;-87
2021/03/29 08:35:44;;;;;;;6.07;3.53;;;;;;;14.41;100.00;97738.91;5078351;28;20700;-89
2021/03/29 08:38:12;;;;;;;4.33;3.33;;;;;;;14.12;100.00;97741.69;5092495;28;20196;-90
2021/03/29 08:40:45;;;;;;;3.07;2.63;;;;;;;14.49;100.00;97737.22;5091286;28;20216;-89
2021/03/29 08:43:12;;;;;;;2.57;2.37;;;;;;;14.46;100.00;97737.50;5091099;28;20262;-89
2021/03/29 08:45:39;;;;;;;4.00;2.10;;;;;;;14.89;100.00;97728.09;5090576;28;20637;-95
2021/03/29 08:48:07;;;;;;;1.83;1.73;;;;;;;14.65;100.00;97731.34;5101942;28;20260;-89
2021/03/29 08:50:35;;;;;;;5.70;2.20;;;;;;;14.60;100.00;97727.44;5094161;28;20203;-90
2021/03/29 08:53:04;;;;;;;1.93;1.70;;;;;;;15.09;100.00;97717.38;5096174;28;20589;-86
2021/03/29 08:55:35;;;;;;;2.30;2.10;;;;;;;15.66;100.00;97721.34;5095507;28;20255;-89
2021/03/29 08:58:03;;;;;;;4.03;2.23;;;;;;;15.41;100.00;97727.41;5095594;28;20188;-88
2021/03/29 09:00:31;;;;;;;2.60;2.10;;;;;;;15.40;100.00;97723.94;5095601;28;20216;-88
2021/03/29 09:02:58;;;;;;;3.30;3.00;;;;;;;15.73;100.00;97723.41;5095857;28;20223;-88
2021/03/29 09:05:27;;;;;;;3.43;2.10;;;;;;;16.50;100.00;97714.50;5095223;28;20200;-90
2021/03/29 09:07:54;;;;;;;3.63;2.30;;;;;;;16.49;100.00;97706.72;5092183;28;20193;-89
2021/03/29 09:10:23;;;;;;;6.13;2.30;;;;;;;15.86;100.00;97711.38;5080079;28;20197;-91
2021/03/29 09:12:56;;;;;;;4.03;2.43;;;;;;;16.20;100.00;97709.72;5077764;28;20223;-88
2021/03/29 09:15:24;;;;;;;2.07;1.90;;;;;;;16.32;100.00;97703.16;5075990;28;20758;-94
2021/03/29 09:17:59;;;;;;;3.83;2.27;;;;;;;16.28;100.00;97699.13;5075140;28;20203;-95
2021/03/29 09:20:28;;;;;;;2.90;2.60;;;;;;;16.92;100.00;97699.53;5075257;28;20288;-95
2021/03/29 09:22:55;;;;;;;3.17;2.10;;;;;;;17.21;100.00;97686.59;5074674;28;20244;-88
2021/03/29 09:25:24;;;;;;;7.23;2.70;;;;;;;17.42;100.00;97691.41;5074673;28;20248;-87
2021/03/29 09:28:16;;;;;;;3.90;2.20;;;;;;;17.01;100.00;97686.13;5075272;28;20234;-93
2021/03/29 09:30:43;;;;;;;2.80;2.60;;;;;;;17.97;100.00;97692.53;5078360;28;20259;-89
2021/03/29 09:33:11;;;;;;;2.17;1.97;;;;;;;17.56;100.00;97695.22;5075166;28;20254;-91
2021/03/29 09:35:37;;;;;;;2.33;2.00;;;;;;;18.14;100.00;97683.50;5075042;28;20246;-92
2021/03/29 09:38:04;;;;;;;3.10;2.70;;;;;;;17.66;100.00;97681.75;5074549;28;20206;-89
2021/03/29 09:40:36;;;;;;;3.17;1.97;;;;;;;18.29;100.00;97679.13;5074737;28;20205;-91
2021/03/29 09:43:04;;;;;;;2.43;2.20;;;;;;;18.45;100.00;97680.06;5099667;23;20195;-96
2021/03/29 09:45:34;;;;;;;3.00;1.90;;;;;;;17.90;100.00;97676.44;5057101;28;20186;-96
2021/03/29 09:48:02;;;;;;;3.13;1.70;;;;;;;17.87;100.00;97670.63;5034894;28;20530;-87
2021/03/29 09:53:22;;;;;;;2.90;2.37;;;;;;;17.10;100.00;97669.16;5162179;22;20234;-92
2021/03/29 09:55:51;;;;;;;4.33;2.57;;;;;;;17.22;100.00;97666.22;5054745;28;20221;-92
2021/03/29 09:58:30;;;;;;;2.30;1.90;;;;;;;17.14;100.00;97656.38;5053950;28;20239;-93
2021/03/29 10:00:59;;;;;;;1.97;1.83;;;;;;;18.35;100.00;97642.19;5056155;28;20634;-93
2021/03/29 10:03:26;;;;;;;6.50;5.67;;;;;;;17.92;100.00;97649.69;5074146;28;20206;-93
2021/03/29 10:05:54;;;;;;;3.07;2.20;;;;;;;17.14;100.00;97651.06;5074562;28;20203;-92
2021/03/29 10:08:26;;;;;;;2.23;1.77;;;;;;;17.24;100.00;97659.72;5073716;28;20201;-91
2021/03/29 10:11:04;;;;;;;3.97;2.37;;;;;;;17.23;100.00;97652.75;5073726;28;20202;-93
2021/03/29 10:13:41;;;;;;;2.67;1.83;;;;;;;17.74;100.00;97653.34;5071540;28;20187;-90
2021/03/29 10:16:23;;;;;;;6.03;2.10;;;;;;;18.33;100.00;97646.84;5053874;28;20259;-93
2021/03/29 10:19:03;;;;;;;2.63;1.90;;;;;;;17.99;100.00;97645.31;5243778;22;20225;-95
2021/03/29 10:21:30;;;;;;;3.03;2.23;;;;;;;17.92;100.00;97642.53;5067937;28;20193;-95
2021/03/29 10:24:14;;;;;;;2.30;1.83;;;;;;;17.93;100.00;97630.03;5062388;28;20193;-93
2021/03/29 10:26:53;;;;;;;4.47;2.40;;;;;;;18.13;100.00;97627.81;5056123;28;20315;-92
2021/03/29 10:29:30;;;;;;;2.43;2.23;;;;;;;17.10;100.00;97626.66;5054194;28;20207;-90
2021/03/29 10:31:57;;;;;;;5.10;1.90;;;;;;;18.11;100.00;97622.66;5054456;28;20193;-92
2021/03/29 10:34:24;;;;;;;2.73;1.97;;;;;;;18.82;100.00;97619.97;5053815;28;20600;-92
2021/03/29 10:36:51;;;;;;;2.80;2.10;;;;;;;19.22;100.00;97618.78;5054161;28;20738;-93
2021/03/29 10:39:19;;;;;;;3.90;2.50;;;;;;;19.58;100.00;97620.81;5054022;28;20281;-90
2021/03/29 10:41:45;;;;;;;2.33;1.93;;;;;;;19.85;100.00;97614.06;5054481;28;20201;-93
2021/03/29 10:44:12;;;;;;;3.47;2.20;;;;;;;19.63;100.00;97615.78;5054256;28;20741;-95
2021/03/29 10:46:41;;;;;;;2.40;2.20;;;;;;;19.74;100.00;97609.16;5054166;28;20202;-93
2021/03/29 10:49:10;;;;;;;2.37;2.17;;;;;;;19.36;100.00;97603.84;5053780;28;20202;-94
2021/03/29 10:51:37;;;;;;;3.43;2.90;;;;;;;18.11;100.00;97601.38;5053800;28;20202;-94
2021/03/29 10:54:05;;;;;;;7.20;1.90;;;;;;;16.57;100.00;97603.22;5057340;28;20202;-93
2021/03/29 10:56:31;;;;;;;2.83;2.37;;;;;;;16.14;100.00;97597.97;5053948;28;20312;-94
2021/03/29 10:58:58;;;;;;;2.23;1.80;;;;;;;15.45;100.00;97609.56;5054139;28;20201;-95
2021/03/29 11:01:25;;;;;;;2.00;1.90;;;;;;;15.64;100.00;97596.06;5054627;28;20203;-92
2021/03/29 11:03:52;;;;;;;2.07;1.83;;;;;;;15.71;100.00;97600.78;5056614;28;20230;-94
2021/03/29 11:06:20;;;;;;;2.53;1.80;;;;;;;15.53;100.00;97603.47;5065418;28;20209;-96
2021/03/29 11:08:47;;;;;;;2.37;1.90;;;;;;;15.45;100.00;97591.84;5052788;28;20232;-91
2021/03/29 11:11:13;;;;;;;4.93;4.30;;;;;;;16.52;100.00;97578.97;5413091;23;20240;-96
2021/03/29 11:13:40;;;;;;;2.90;2.03;;;;;;;17.72;100.00;97566.75;5057539;28;20217;-94
2021/03/29 11:16:08;;;;;;;3.47;2.13;;;;;;;17.90;100.00;97566.56;5053725;28;20256;-94
2021/03/29 11:18:35;;;;;;;8.93;6.03;;;;;;;16.92;100.00;97566.75;5053445;28;20205;-94
2021/03/29 11:21:02;;;;;;;3.80;2.23;;;;;;;17.17;100.00;97564.91;5053085;28;20206;-93
2021/03/29 11:23:29;;;;;;;9.40;6.43;;;;;;;16.21;100.00;97568.13;5053114;28;20707;-95
2021/03/29 11:25:56;;;;;;;3.53;1.80;;;;;;;16.73;100.00;97550.16;5052771;28;20192;-95
2021/03/29 11:28:23;;;;;;;1.83;1.70;;;;;;;17.28;100.00;97545.94;5053074;28;20202;-94
2021/03/29 11:30:50;;;;;;;2.27;2.07;;;;;;;16.95;100.00;97539.88;5052795;28;20265;-95
2021/03/29 11:33:17;;;;;;;1.93;1.80;;;;;;;17.24;100.00;97541.97;5052880;28;20194;-93
2021/03/29 11:35:43;;;;;;;4.67;2.30;;;;;;;17.33;100.00;97538.31;5052830;28;20220;-95
2021/03/29 11:38:10;;;;;;;2.67;1.83;;;;;;;17.14;100.00;97541.31;5053072;28;20572;-94
2021/03/29 11:40:38;;;;;;;3.00;2.10;;;;;;;17.52;100.00;97545.88;5052676;28;20204;-95
2021/03/29 11:43:05;;;;;;;2.27;2.00;;;;;;;17.55;100.00;97536.75;5052978;28;20212;-95
2021/03/29 11:45:31;;;;;;;3.80;1.80;;;;;;;17.96;100.00;97531.28;5052809;28;20200;-94
2021/03/29 11:47:58;;;;;;;3.20;2.77;;;;;;;17.44;100.00;97529.16;5052970;28;20208;-95